createdAt,value
2022-08-28T00:00:29.618Z,12.90
2022-08-28T00:02:58.221Z,15.25
2022-08-28T00:05:29.454Z,14.88
2022-08-28T00:07:58.087Z,14.63
2022-08-28T00:10:26.884Z,14.73
2022-08-28T00:12:57.407Z,13.93
2022-08-28T00:15:31.780Z,12.55
2022-08-28T00:17:59.975Z,13.30
2022-08-28T00:20:28.605Z,13.10
2022-08-28T00:22:56.523Z,13.75
2022-08-28T00:25:27.355Z,13.82
2022-08-28T00:27:57.439Z,12.35
2022-08-28T00:30:30.186Z,14.23
2022-08-28T00:33:01.281Z,13.38
2022-08-28T00:35:29.586Z,14.27
2022-08-28T00:37:57.941Z,13.82
2022-08-28T00:40:32.414Z,13.45
2022-08-28T00:43:01.768Z,13.95
2022-08-28T00:45:36.003Z,12.90
2022-08-28T00:48:06.741Z,13.13
2022-08-28T00:51:00.414Z,14.00
2022-08-28T00:56:00.829Z,12.10
2022-08-28T00:58:28.519Z,13.27
2022-08-28T01:00:57.545Z,14.27
2022-08-28T01:03:26.543Z,11.93
2022-08-28T01:05:54.699Z,12.80
2022-08-28T01:08:23.038Z,13.13
2022-08-28T01:10:56.521Z,14.23
2022-08-28T01:13:26.769Z,13.23
2022-08-28T01:15:55.652Z,13.82
2022-08-28T01:18:26.058Z,14.93
2022-08-28T01:21:00.539Z,13.55
2022-08-28T01:23:45.674Z,14.65
2022-08-28T01:26:13.358Z,15.00
2022-08-28T01:28:41.315Z,14.65
2022-08-28T01:31:11.339Z,14.25
2022-08-28T01:33:41.368Z,15.80
2022-08-28T01:36:12.107Z,14.48
2022-08-28T01:38:40.328Z,15.32
2022-08-28T01:41:09.715Z,16.05
2022-08-28T01:43:37.445Z,16.20
2022-08-28T01:46:06.415Z,16.55
2022-08-28T01:48:36.798Z,14.93
2022-08-28T01:51:05.844Z,15.55
2022-08-28T01:53:34.740Z,15.45
2022-08-28T01:56:05.488Z,15.30
2022-08-28T01:58:38.274Z,16.38
2022-08-28T02:01:10.717Z,15.13
2022-08-28T02:03:38.629Z,16.75
2022-08-28T02:06:07.032Z,16.35
2022-08-28T02:08:34.689Z,16.88
2022-08-28T02:11:02.324Z,16.45
2022-08-28T02:13:29.987Z,15.98
2022-08-28T02:15:59.476Z,16.20
2022-08-28T02:18:27.216Z,15.43
2022-08-28T02:20:54.865Z,16.80
2022-08-28T02:23:22.870Z,17.23
2022-08-28T02:25:50.785Z,16.55
2022-08-28T02:28:18.586Z,14.10
2022-08-28T02:30:46.445Z,14.55
2022-08-28T02:33:16.074Z,14.60
2022-08-28T02:35:44.321Z,14.10
2022-08-28T02:38:12.123Z,15.13
2022-08-28T02:40:41.182Z,14.48
2022-08-28T02:43:08.861Z,13.38
2022-08-28T02:45:37.020Z,14.07
2022-08-28T02:48:05.373Z,14.55
2022-08-28T02:50:46.125Z,14.73
2022-08-28T02:53:14.460Z,15.30
2022-08-28T02:55:42.115Z,14.43
2022-08-28T02:58:10.109Z,14.93
2022-08-28T03:00:37.768Z,14.50
2022-08-28T03:03:05.511Z,14.75
2022-08-28T03:05:33.103Z,14.40
2022-08-28T03:08:02.090Z,14.32
2022-08-28T03:10:29.693Z,13.75
2022-08-28T03:12:57.376Z,12.88
2022-08-28T03:15:25.095Z,12.80
2022-08-28T03:17:52.745Z,11.85
2022-08-28T03:20:20.566Z,11.35
2022-08-28T03:23:07.898Z,10.90
2022-08-28T03:25:37.042Z,11.13
2022-08-28T03:28:05.012Z,10.65
2022-08-28T03:30:32.771Z,9.88
2022-08-28T03:33:01.072Z,10.02
2022-08-28T03:35:28.750Z,9.88
2022-08-28T03:37:56.355Z,10.43
2022-08-28T03:40:24.528Z,11.00
2022-08-28T03:42:53.796Z,9.95
2022-08-28T03:45:22.286Z,9.23
2022-08-28T03:47:50.852Z,9.15
2022-08-28T03:50:19.799Z,9.90
2022-08-28T03:52:47.678Z,9.35
2022-08-28T03:55:15.750Z,8.60
2022-08-28T03:57:43.473Z,8.90
2022-08-28T04:00:14.353Z,8.27
2022-08-28T04:02:42.502Z,8.40
2022-08-28T04:05:11.206Z,7.82
2022-08-28T04:07:39.379Z,7.65
2022-08-28T04:10:08.444Z,7.85
2022-08-28T04:12:37.092Z,7.72
2022-08-28T04:15:07.124Z,7.72
2022-08-28T04:17:38.591Z,8.38
2022-08-28T04:20:07.778Z,8.05
2022-08-28T04:22:37.097Z,8.07
2022-08-28T04:25:05.398Z,7.53
2022-08-28T04:27:33.106Z,7.90
2022-08-28T04:30:00.924Z,7.78
2022-08-28T04:32:28.888Z,7.80
2022-08-28T04:34:57.826Z,7.65
2022-08-28T04:37:25.468Z,7.28
2022-08-28T04:39:55.752Z,7.85
2022-08-28T04:42:23.521Z,7.35
2022-08-28T04:44:51.332Z,7.53
2022-08-28T04:47:18.969Z,7.57
2022-08-28T04:49:46.595Z,6.18
2022-08-28T04:52:15.601Z,7.38
2022-08-28T04:54:43.177Z,6.70
2022-08-28T04:57:10.785Z,7.78
2022-08-28T04:59:39.062Z,8.07
2022-08-28T05:02:06.752Z,8.18
2022-08-28T05:04:34.432Z,7.18
2022-08-28T05:07:02.149Z,7.70
2022-08-28T05:09:31.803Z,6.53
2022-08-28T05:12:03.723Z,7.57
2022-08-28T05:14:31.536Z,7.72
2022-08-28T05:16:59.834Z,6.90
2022-08-28T05:19:28.998Z,8.00
2022-08-28T05:21:56.645Z,8.02
2022-08-28T05:24:24.326Z,8.38
2022-08-28T05:26:53.300Z,8.45
2022-08-28T05:29:21.068Z,9.18
2022-08-28T05:31:52.953Z,7.03
2022-08-28T05:34:21.713Z,6.97
2022-08-28T05:36:49.386Z,7.10
2022-08-28T05:39:18.280Z,6.45
2022-08-28T05:41:46.536Z,8.05
2022-08-28T05:44:17.805Z,7.03
2022-08-28T05:46:48.402Z,6.43
2022-08-28T05:49:17.709Z,7.25
2022-08-28T05:51:45.456Z,7.25
2022-08-28T05:54:14.796Z,7.45
2022-08-28T05:56:44.120Z,7.68
2022-08-28T05:59:13.410Z,7.05
2022-08-28T06:01:45.573Z,7.30
2022-08-28T06:04:17.539Z,7.18
2022-08-28T06:06:46.113Z,7.32
2022-08-28T06:09:15.881Z,9.43
2022-08-28T06:11:46.241Z,7.53
2022-08-28T06:14:16.532Z,7.63
2022-08-28T06:16:49.495Z,6.78
2022-08-28T06:19:18.883Z,7.97
2022-08-28T06:21:48.159Z,7.85
2022-08-28T06:24:15.974Z,6.72
2022-08-28T06:26:43.630Z,6.45
2022-08-28T06:29:13.670Z,5.78
2022-08-28T06:31:41.354Z,7.50
2022-08-28T06:34:10.570Z,6.65
2022-08-28T06:36:41.675Z,5.75
2022-08-28T06:39:11.043Z,6.28
2022-08-28T06:41:42.825Z,5.70
2022-08-28T06:44:12.385Z,6.32
2022-08-28T06:46:40.960Z,7.22
2022-08-28T06:49:10.022Z,6.15
2022-08-28T06:51:38.313Z,7.45
2022-08-28T06:54:06.455Z,8.55
2022-08-28T06:56:34.523Z,6.90
2022-08-28T06:59:02.720Z,5.75
2022-08-28T07:01:32.944Z,7.80
2022-08-28T07:04:03.936Z,7.03
2022-08-28T07:06:35.380Z,7.30
2022-08-28T07:09:05.163Z,6.25
2022-08-28T07:11:34.516Z,6.20
2022-08-28T07:14:02.963Z,5.97
2022-08-28T07:16:33.085Z,5.82
2022-08-28T07:19:03.392Z,5.13
2022-08-28T07:21:31.901Z,5.90
2022-08-28T07:24:03.263Z,5.82
2022-08-28T07:26:30.942Z,5.05
2022-08-28T07:29:09.971Z,5.78
2022-08-28T07:31:40.680Z,5.85
2022-08-28T07:34:09.449Z,5.75
2022-08-28T07:36:37.373Z,5.55
2022-08-28T07:39:07.456Z,5.13
2022-08-28T07:41:39.095Z,6.35
2022-08-28T07:44:25.432Z,5.15
2022-08-28T07:46:54.931Z,6.18
2022-08-28T07:49:23.668Z,5.90
2022-08-28T07:51:54.218Z,5.80
2022-08-28T07:54:23.632Z,5.85
2022-08-28T07:56:52.585Z,5.30
2022-08-28T07:59:22.129Z,6.40
2022-08-28T08:01:52.145Z,4.90
2022-08-28T08:04:21.993Z,8.55
2022-08-28T08:06:55.622Z,5.80
2022-08-28T08:09:27.380Z,5.10
2022-08-28T08:11:57.265Z,5.53
2022-08-28T08:14:25.573Z,4.93
2022-08-28T08:16:53.409Z,4.55
2022-08-28T08:19:21.391Z,4.60
2022-08-28T08:21:53.280Z,4.55
2022-08-28T08:24:25.737Z,4.80
2022-08-28T08:26:59.624Z,4.40
2022-08-28T08:29:29.504Z,5.20
2022-08-28T08:31:58.760Z,4.55
2022-08-28T08:34:26.725Z,4.18
2022-08-28T08:36:55.074Z,5.22
2022-08-28T08:39:22.689Z,4.78
2022-08-28T08:41:53.026Z,4.30
2022-08-28T08:44:28.065Z,4.47
2022-08-28T08:47:14.083Z,4.03
2022-08-28T08:49:48.799Z,5.07
2022-08-28T08:52:28.997Z,4.80
2022-08-28T08:55:07.111Z,4.70
2022-08-28T08:57:37.623Z,4.07
2022-08-28T09:00:13.671Z,4.53
2022-08-28T09:02:49.288Z,4.60
2022-08-28T09:05:19.946Z,5.40
2022-08-28T09:07:56.584Z,4.70
2022-08-28T09:10:25.314Z,4.78
2022-08-28T09:12:58.695Z,4.47
2022-08-28T09:15:32.874Z,5.55
2022-08-28T09:18:11.656Z,4.28
2022-08-28T09:20:39.673Z,4.32
2022-08-28T09:23:12.730Z,4.32
2022-08-28T09:28:22.702Z,4.53
2022-08-28T09:31:04.902Z,4.38
2022-08-28T09:33:41.764Z,3.90
2022-08-28T09:36:32.704Z,4.40
2022-08-28T09:39:09.847Z,4.10
2022-08-28T09:42:11.933Z,3.97
2022-08-28T09:44:52.183Z,3.90
2022-08-28T09:47:48.680Z,4.28
2022-08-28T09:50:20.913Z,3.78
2022-08-28T09:52:48.946Z,3.67
2022-08-28T09:55:26.609Z,3.83
2022-08-28T09:57:55.340Z,4.40
2022-08-28T10:00:23.757Z,4.20
2022-08-28T10:03:03.296Z,4.85
2022-08-28T10:05:41.544Z,3.58
2022-08-28T10:08:27.396Z,4.00
2022-08-28T10:10:58.665Z,5.60
2022-08-28T10:13:31.448Z,4.22
2022-08-28T10:16:21.002Z,6.68
2022-08-28T10:18:56.334Z,4.93
2022-08-28T10:21:30.425Z,4.30
2022-08-28T10:24:27.444Z,7.00
2022-08-28T10:27:06.316Z,4.35
2022-08-28T10:29:45.447Z,4.63
2022-08-28T10:32:28.192Z,5.10
2022-08-28T10:35:06.909Z,4.00
2022-08-28T10:37:49.015Z,3.40
2022-08-28T10:40:24.339Z,4.50
2022-08-28T10:42:56.990Z,4.65
2022-08-28T10:45:26.649Z,4.63
2022-08-28T10:47:58.608Z,3.65
2022-08-28T10:50:31.008Z,5.40
2022-08-28T10:53:02.718Z,4.30
2022-08-28T10:55:36.817Z,4.35
2022-08-28T10:58:24.522Z,3.38
2022-08-28T11:00:56.133Z,4.45
2022-08-28T11:03:34.686Z,3.67
2022-08-28T11:06:11.300Z,4.35
2022-08-28T11:08:40.609Z,4.13
2022-08-28T11:11:14.368Z,3.67
2022-08-28T11:13:51.790Z,3.95
2022-08-28T11:16:22.923Z,3.45
2022-08-28T11:19:43.400Z,3.60
2022-08-28T11:22:16.835Z,3.83
2022-08-28T11:24:50.482Z,3.92
2022-08-28T11:27:26.877Z,3.60
2022-08-28T11:30:04.808Z,3.45
2022-08-28T11:32:58.365Z,3.75
2022-08-28T11:35:49.369Z,3.40
2022-08-28T11:38:52.962Z,3.28
2022-08-28T11:41:26.524Z,3.35
2022-08-28T11:44:29.025Z,3.30
2022-08-28T11:47:36.192Z,3.10
2022-08-28T11:50:12.749Z,4.03
2022-08-28T11:53:07.259Z,3.15
2022-08-28T11:55:51.488Z,3.28
2022-08-28T11:58:28.299Z,2.80
2022-08-28T12:01:04.387Z,3.38
2022-08-28T12:03:36.668Z,2.95
2022-08-28T12:06:05.196Z,3.47
2022-08-28T12:09:10.028Z,3.30
2022-08-28T12:12:05.475Z,3.40
2022-08-28T12:15:07.440Z,3.60
2022-08-28T12:17:47.964Z,3.00
2022-08-28T12:20:39.701Z,3.00
2022-08-28T12:23:39.438Z,2.90
2022-08-28T12:26:10.599Z,2.83
2022-08-28T12:28:47.526Z,2.80
2022-08-28T12:32:02.645Z,3.05
2022-08-28T12:35:02.050Z,3.10
2022-08-28T12:37:51.370Z,2.75
2022-08-28T12:40:24.581Z,2.92
2022-08-28T12:42:55.695Z,3.28
2022-08-28T12:45:27.809Z,3.17
2022-08-28T12:47:59.998Z,3.70
2022-08-28T12:50:32.969Z,2.93
2022-08-28T12:55:29.560Z,2.75
2022-08-28T12:57:57.315Z,2.70
2022-08-28T13:00:33.171Z,3.47
2022-08-28T13:03:01.554Z,2.90
2022-08-28T13:05:36.036Z,2.53
2022-08-28T13:08:07.032Z,2.92
2022-08-28T13:10:37.791Z,2.67
2022-08-28T13:13:08.474Z,2.70
2022-08-28T13:15:57.886Z,2.70
2022-08-28T13:18:45.313Z,2.85
2022-08-28T13:21:33.525Z,2.20
2022-08-28T13:24:42.730Z,2.78
2022-08-28T13:27:22.382Z,2.30
2022-08-28T13:30:00.085Z,2.60
2022-08-28T13:32:30.529Z,3.08
2022-08-28T13:35:24.738Z,2.42
2022-08-28T13:37:55.128Z,2.38
2022-08-28T13:40:55.611Z,2.25
2022-08-28T13:43:15.505Z,2.60
2022-08-28T13:45:48.113Z,2.65
2022-08-28T13:48:17.762Z,2.60
2022-08-28T13:50:47.606Z,2.30
2022-08-28T13:53:20.649Z,2.13
2022-08-28T13:55:50.117Z,2.70
2022-08-28T13:58:19.209Z,2.22
2022-08-28T14:00:48.759Z,2.40
2022-08-28T14:03:34.744Z,2.70
2022-08-28T14:06:03.461Z,1.85
2022-08-28T14:08:31.537Z,2.38
2022-08-28T14:10:59.387Z,2.75
2022-08-28T14:13:28.461Z,2.50
2022-08-28T14:15:57.469Z,2.47
2022-08-28T14:18:25.940Z,2.25
2022-08-28T14:20:53.916Z,2.20
2022-08-28T14:23:22.901Z,2.50
2022-08-28T14:25:50.769Z,2.45
2022-08-28T14:28:18.981Z,2.75
2022-08-28T14:30:50.420Z,2.47
2022-08-28T14:33:20.822Z,2.35
2022-08-28T14:35:49.735Z,2.55
2022-08-28T14:38:17.897Z,2.38
2022-08-28T14:40:46.202Z,2.50
2022-08-28T14:43:15.370Z,2.50
2022-08-28T14:45:45.021Z,2.85
2022-08-28T14:48:14.471Z,2.60
2022-08-28T14:50:43.874Z,2.15
2022-08-28T14:53:12.619Z,2.40
2022-08-28T14:55:42.061Z,2.45
2022-08-28T14:58:09.716Z,2.50
2022-08-28T15:00:42.104Z,2.83
2022-08-28T15:03:10.215Z,2.20
2022-08-28T15:05:39.279Z,2.60
2022-08-28T15:08:08.691Z,2.53
2022-08-28T15:10:38.671Z,2.30
2022-08-28T15:13:07.714Z,2.50
2022-08-28T15:15:36.545Z,2.20
2022-08-28T15:18:04.421Z,2.50
2022-08-28T15:20:32.588Z,2.15
2022-08-28T15:23:01.603Z,2.17
2022-08-28T15:25:29.222Z,2.10
2022-08-28T15:27:56.952Z,2.20
2022-08-28T15:30:24.557Z,2.20
2022-08-28T15:32:52.623Z,1.92
2022-08-28T15:35:20.321Z,2.08
2022-08-28T15:37:47.940Z,2.22
2022-08-28T15:40:34.715Z,2.20
2022-08-28T15:43:02.398Z,2.00
2022-08-28T15:45:30.156Z,2.38
2022-08-28T15:47:58.573Z,2.20
2022-08-28T15:50:26.353Z,2.17
2022-08-28T15:52:53.990Z,2.45
2022-08-28T15:55:23.472Z,2.22
2022-08-28T15:57:51.176Z,2.58
2022-08-28T16:00:19.061Z,2.42
2022-08-28T16:02:46.693Z,2.17
2022-08-28T16:05:14.420Z,2.40
2022-08-28T16:07:42.405Z,2.28
2022-08-28T16:10:13.301Z,2.30
2022-08-28T16:12:42.529Z,2.55
2022-08-28T16:15:12.216Z,2.13
2022-08-28T16:17:39.811Z,2.47
2022-08-28T16:20:12.374Z,2.17
2022-08-28T16:22:41.385Z,2.17
2022-08-28T16:25:10.633Z,2.40
2022-08-28T16:27:38.236Z,2.10
2022-08-28T16:30:15.891Z,2.13
2022-08-28T16:32:59.677Z,2.17
2022-08-28T16:35:27.352Z,2.85
2022-08-28T16:37:54.994Z,2.17
2022-08-28T16:40:23.392Z,2.15
2022-08-28T16:42:52.096Z,2.63
2022-08-28T16:45:21.567Z,2.40
2022-08-28T16:47:50.028Z,2.50
2022-08-28T16:50:19.308Z,2.72
2022-08-28T16:52:47.561Z,2.40
2022-08-28T16:55:15.332Z,2.22
2022-08-28T16:57:43.097Z,2.33
2022-08-28T17:00:13.644Z,2.20
2022-08-28T17:02:43.739Z,2.30
2022-08-28T17:05:12.122Z,2.42
2022-08-28T17:07:40.947Z,2.20
2022-08-28T17:10:10.404Z,2.13
2022-08-28T17:12:38.322Z,2.22
2022-08-28T17:15:07.268Z,2.28
2022-08-28T17:17:35.531Z,2.47
2022-08-28T17:20:07.717Z,2.65
2022-08-28T17:22:34.500Z,2.38
2022-08-28T17:25:07.434Z,2.47
2022-08-28T17:27:36.501Z,2.40
2022-08-28T17:30:05.442Z,2.50
2022-08-28T17:32:33.362Z,2.30
2022-08-28T17:35:05.325Z,2.40
2022-08-28T17:37:33.005Z,3.30
2022-08-28T17:40:00.693Z,2.63
2022-08-28T17:42:28.411Z,2.35
2022-08-28T17:44:56.077Z,2.65
2022-08-28T17:47:30.742Z,2.90
2022-08-28T17:49:59.583Z,2.83
2022-08-28T17:52:29.435Z,2.63
2022-08-28T17:54:57.268Z,2.75
2022-08-28T17:57:25.343Z,3.05
2022-08-28T17:59:52.996Z,2.90
2022-08-28T18:02:20.689Z,3.33
2022-08-28T18:04:48.382Z,3.90
2022-08-28T18:07:16.154Z,4.40
2022-08-28T18:09:45.144Z,4.80
2022-08-28T18:12:13.548Z,3.40
2022-08-28T18:14:41.362Z,3.58
2022-08-28T18:17:10.632Z,2.90
2022-08-28T18:19:39.956Z,3.17
2022-08-28T18:22:08.822Z,3.42
2022-08-28T18:24:36.637Z,3.80
2022-08-28T18:27:07.157Z,3.60
2022-08-28T18:29:35.030Z,3.60
2022-08-28T18:32:02.812Z,3.58
2022-08-28T18:34:32.852Z,3.42
2022-08-28T18:37:00.833Z,3.53
2022-08-28T18:39:29.825Z,4.00
2022-08-28T18:41:58.847Z,3.60
2022-08-28T18:44:27.841Z,3.22
2022-08-28T18:46:55.640Z,3.83
2022-08-28T18:49:23.413Z,4.20
2022-08-28T18:51:51.072Z,3.97
2022-08-28T18:54:20.551Z,3.40
2022-08-28T18:56:49.689Z,3.72
2022-08-28T18:59:18.594Z,3.92
2022-08-28T19:01:47.650Z,3.60
2022-08-28T19:04:15.334Z,3.75
2022-08-28T19:06:43.004Z,4.20
2022-08-28T19:09:20.185Z,4.00
2022-08-28T19:11:48.863Z,4.03
2022-08-28T19:14:16.548Z,4.15
2022-08-28T19:16:44.366Z,4.00
2022-08-28T19:19:15.608Z,3.92
2022-08-28T19:21:43.963Z,3.65
2022-08-28T19:24:11.869Z,4.35
2022-08-28T19:26:39.562Z,4.43
2022-08-28T19:29:07.228Z,4.05
2022-08-28T19:31:37.979Z,4.13
2022-08-28T19:34:07.018Z,3.80
2022-08-28T19:36:36.960Z,4.03
2022-08-28T19:39:04.951Z,4.25
2022-08-28T19:41:36.756Z,4.25
2022-08-28T19:44:05.029Z,4.63
2022-08-28T19:46:34.192Z,4.10
2022-08-28T19:49:03.372Z,3.97
2022-08-28T19:51:31.480Z,3.90
2022-08-28T19:54:00.520Z,3.80
2022-08-28T19:56:29.671Z,4.50
2022-08-28T19:58:59.079Z,4.40
2022-08-28T20:01:29.376Z,4.00
2022-08-28T20:03:57.972Z,4.00
2022-08-28T20:06:25.742Z,4.20
2022-08-28T20:08:53.307Z,4.43
2022-08-28T20:11:24.980Z,4.20
2022-08-28T20:13:53.071Z,7.45
2022-08-28T20:16:21.404Z,7.93
2022-08-28T20:18:50.288Z,7.57
2022-08-28T20:21:36.886Z,5.10
2022-08-28T20:24:07.341Z,4.72
2022-08-28T20:26:36.373Z,5.10
2022-08-28T20:29:04.228Z,4.45
2022-08-28T20:31:31.933Z,4.63
2022-08-28T20:33:59.591Z,4.65
2022-08-28T20:36:27.446Z,5.00
2022-08-28T20:38:55.349Z,3.92
2022-08-28T20:41:23.169Z,4.32
2022-08-28T20:43:52.291Z,4.45
2022-08-28T20:46:20.136Z,4.70
2022-08-28T20:48:47.945Z,4.53
2022-08-28T20:51:15.640Z,4.40
2022-08-28T20:53:43.272Z,4.30
2022-08-28T20:56:11.280Z,4.50
2022-08-28T20:58:39.684Z,4.70
2022-08-28T21:01:08.690Z,4.75
2022-08-28T21:03:36.434Z,4.93
2022-08-28T21:06:04.041Z,4.85
2022-08-28T21:08:31.680Z,4.45
2022-08-28T21:10:59.309Z,4.85
2022-08-28T21:13:27.116Z,4.95
2022-08-28T21:15:54.772Z,11.27
2022-08-28T21:18:23.712Z,7.30
2022-08-28T21:20:51.405Z,7.00
2022-08-28T21:23:19.695Z,8.00
2022-08-28T21:25:48.280Z,5.65
2022-08-28T21:28:16.015Z,4.80
2022-08-28T21:30:43.753Z,5.13
2022-08-28T21:33:11.976Z,5.30
2022-08-28T21:35:42.441Z,5.20
2022-08-28T21:38:10.088Z,4.70
2022-08-28T21:40:37.762Z,5.75
2022-08-28T21:43:05.428Z,5.85
2022-08-28T21:45:33.077Z,4.43
2022-08-28T21:48:00.925Z,5.07
2022-08-28T21:50:29.027Z,6.10
2022-08-28T21:52:58.027Z,8.52
2022-08-28T21:55:25.912Z,18.77
2022-08-28T21:57:53.544Z,7.32
2022-08-28T22:00:24.181Z,5.45
2022-08-28T22:02:52.229Z,5.63
2022-08-28T22:05:20.352Z,5.70
2022-08-28T22:07:48.125Z,5.00
2022-08-28T22:10:17.321Z,5.03
2022-08-28T22:12:44.961Z,4.88
2022-08-28T22:15:13.049Z,5.18
2022-08-28T22:17:40.830Z,5.65
2022-08-28T22:20:09.765Z,5.32
2022-08-28T22:22:54.716Z,5.70
2022-08-28T22:25:24.004Z,5.53
2022-08-28T22:27:51.610Z,6.00
2022-08-28T22:30:19.608Z,5.70
2022-08-28T22:32:47.223Z,5.90
2022-08-28T22:35:14.904Z,5.65
2022-08-28T22:37:42.841Z,5.85
2022-08-28T22:40:13.616Z,5.45
2022-08-28T22:42:43.515Z,5.43
2022-08-28T22:45:11.439Z,5.80
2022-08-28T22:47:39.531Z,5.68
2022-08-28T22:50:08.428Z,5.28
2022-08-28T22:52:37.084Z,5.55
2022-08-28T22:55:06.594Z,5.25
2022-08-28T22:57:34.304Z,5.32
2022-08-28T23:00:05.401Z,5.05
2022-08-28T23:02:33.097Z,5.13
2022-08-28T23:05:00.749Z,5.32
2022-08-28T23:07:28.388Z,5.20
2022-08-28T23:09:56.013Z,5.28
2022-08-28T23:12:24.006Z,6.05
2022-08-28T23:14:51.924Z,4.72
2022-08-28T23:17:20.908Z,4.70
2022-08-28T23:19:49.190Z,4.95
2022-08-28T23:22:17.935Z,5.28
2022-08-28T23:24:46.504Z,5.13
2022-08-28T23:27:35.489Z,5.80
2022-08-28T23:30:02.423Z,5.00
2022-08-28T23:32:31.347Z,5.53
2022-08-28T23:35:01.812Z,5.20
2022-08-28T23:37:29.517Z,5.75
2022-08-28T23:39:58.976Z,5.40
2022-08-28T23:42:28.488Z,5.30
2022-08-28T23:44:56.802Z,5.38
2022-08-28T23:47:24.434Z,5.47
2022-08-28T23:49:53.380Z,5.45
2022-08-28T23:52:20.986Z,5.30
2022-08-28T23:54:49.827Z,5.40
2022-08-28T23:57:17.815Z,5.38
2022-08-28T23:59:45.553Z,5.18
